Time;durP1;ratioP1;P1;durP2;ratioP2;P2;SDS_P1;SDS_P2;PMS_P1;PMS_P2;Temp;Humidity;BMP_temperature;BMP_pressure;BME280_temperature;BME280_humidity;BME280_pressure;Samples;Min_cycle;Max_cycle;Signal;HPM_P1;HPM_P2
2021/06/29 00:00:28;;;;;;;1.63;1.17;;;26.10;60.40;;;;;;5094846;28;20142;-59
2021/06/29 00:03:05;;;;;;;2.42;1.13;;;26.10;60.40;;;;;;5095161;28;20497;-59
2021/06/29 00:05:32;;;;;;;3.30;1.15;;;26.10;60.40;;;;;;5094854;28;20031;-56
2021/06/29 00:07:59;;;;;;;2.78;1.30;;;26.10;60.40;;;;;;5090288;28;20111;-59
2021/06/29 00:10:28;;;;;;;1.00;0.90;;;26.10;60.40;;;;;;5094671;28;20040;-59
2021/06/29 00:12:54;;;;;;;1.40;0.98;;;26.10;60.40;;;;;;5093928;28;20032;-59
2021/06/29 00:15:21;;;;;;;1.92;0.98;;;26.10;60.40;;;;;;5076716;28;20077;-59
2021/06/29 00:17:47;;;;;;;2.95;1.67;;;26.10;60.30;;;;;;5094468;28;20028;-59
2021/06/29 00:20:14;;;;;;;1.52;1.00;;;26.10;60.30;;;;;;5094863;28;20036;-59
2021/06/29 00:22:40;;;;;;;1.27;0.82;;;26.10;60.40;;;;;;5094121;28;20031;-59
2021/06/29 00:25:08;;;;;;;1.67;1.17;;;26.10;60.30;;;;;;5094663;28;20024;-59
2021/06/29 00:27:34;;;;;;;1.83;1.10;;;26.10;60.30;;;;;;5093796;28;20020;-56
2021/06/29 00:29:59;;;;;;;2.10;1.00;;;26.10;60.30;;;;;;5094795;28;20051;-59
2021/06/29 00:32:25;;;;;;;1.42;1.20;;;26.10;60.30;;;;;;5094018;28;20110;-59
2021/06/29 00:34:51;;;;;;;1.20;1.00;;;26.10;60.30;;;;;;5093834;28;20024;-59
2021/06/29 00:37:16;;;;;;;1.35;1.10;;;26.10;60.20;;;;;;5090217;28;20024;-59
2021/06/29 00:39:42;;;;;;;1.20;0.90;;;26.10;60.20;;;;;;5073106;28;20036;-59
2021/06/29 00:42:08;;;;;;;1.10;1.00;;;26.10;60.30;;;;;;5074216;28;20111;-59
2021/06/29 00:44:34;;;;;;;1.58;0.90;;;26.10;60.30;;;;;;5073600;28;20033;-56
2021/06/29 00:46:59;;;;;;;1.73;0.98;;;26.10;60.20;;;;;;5086324;28;20028;-58
2021/06/29 00:49:25;;;;;;;1.17;1.00;;;26.10;60.30;;;;;;5093948;28;20038;-59
2021/06/29 00:51:51;;;;;;;1.30;0.93;;;26.10;60.20;;;;;;5093600;28;20021;-59
2021/06/29 00:54:17;;;;;;;2.05;0.93;;;26.10;60.20;;;;;;5094078;28;20042;-58
2021/06/29 00:56:44;;;;;;;1.55;0.90;;;26.00;60.10;;;;;;5093458;28;20035;-58
2021/06/29 00:59:11;;;;;;;1.20;0.93;;;26.10;60.20;;;;;;5093747;28;20052;-58
2021/06/29 01:01:36;;;;;;;1.77;1.20;;;26.10;60.10;;;;;;5093257;28;20032;-58
2021/06/29 01:04:02;;;;;;;1.00;0.82;;;26.10;60.10;;;;;;5093769;28;20038;-59
2021/06/29 01:06:28;;;;;;;2.08;1.10;;;26.10;60.10;;;;;;5093743;28;20020;-59
2021/06/29 01:08:54;;;;;;;1.63;1.00;;;26.00;60.70;;;;;;5092742;28;20077;-59
2021/06/29 01:11:20;;;;;;;1.30;0.90;;;26.10;60.10;;;;;;5093781;28;20017;-59
2021/06/29 01:13:47;;;;;;;0.93;0.80;;;26.10;60.10;;;;;;5092599;28;20468;-59
2021/06/29 01:16:14;;;;;;;2.40;1.17;;;26.10;60.10;;;;;;5093603;28;20028;-59
2021/06/29 01:18:45;;;;;;;1.50;1.00;;;26.10;60.10;;;;;;5074986;28;20381;-59
2021/06/29 01:21:16;;;;;;;1.20;1.00;;;26.10;60.70;;;;;;5093564;28;20043;-59
2021/06/29 01:23:46;;;;;;;1.00;0.90;;;26.10;60.10;;;;;;5092981;28;20020;-59
2021/06/29 01:26:24;;;;;;;1.92;0.82;;;26.10;60.10;;;;;;5093243;28;20266;-59
2021/06/29 01:31:16;;;;;;;1.25;1.00;;;26.10;60.10;;;;;;5093471;28;20029;-59
2021/06/29 01:33:45;;;;;;;0.80;0.80;;;26.10;60.10;;;;;;5092514;28;20163;-59
2021/06/29 01:36:15;;;;;;;1.30;0.95;;;26.10;60.10;;;;;;5093410;28;20028;-59
2021/06/29 01:38:41;;;;;;;1.00;0.75;;;26.10;60.10;;;;;;5092366;28;20020;-59
2021/06/29 01:41:07;;;;;;;1.50;0.88;;;26.10;60.10;;;;;;5093042;28;20502;-59
2021/06/29 01:43:40;;;;;;;0.80;0.80;;;26.10;60.10;;;;;;5092519;28;20028;-57
2021/06/29 01:46:05;;;;;;;1.75;1.25;;;26.00;60.00;;;;;;5093169;28;20116;-59
2021/06/29 01:48:32;;;;;;;1.15;1.00;;;26.10;60.00;;;;;;5092749;28;20051;-59
2021/06/29 01:50:58;;;;;;;1.23;1.13;;;26.10;60.10;;;;;;5092013;28;20051;-58
2021/06/29 01:53:24;;;;;;;1.40;1.10;;;26.10;60.00;;;;;;5093070;28;20024;-58
2021/06/29 01:55:51;;;;;;;1.38;1.00;;;26.10;60.00;;;;;;5092192;28;20024;-59
2021/06/29 01:58:34;;;;;;;0.90;0.90;;;26.10;60.00;;;;;;5092796;28;20536;-60
2021/06/29 02:01:00;;;;;;;1.83;1.05;;;26.10;60.00;;;;;;5092444;28;20044;-59
2021/06/29 02:03:26;;;;;;;1.33;1.00;;;26.10;60.00;;;;;;5093080;28;20032;-59
2021/06/29 02:05:52;;;;;;;1.25;0.80;;;26.10;60.00;;;;;;5092095;28;20520;-59
2021/06/29 02:08:18;;;;;;;1.40;1.00;;;26.10;60.00;;;;;;5093076;28;20401;-59
2021/06/29 02:10:44;;;;;;;1.25;1.00;;;26.10;60.00;;;;;;5091602;28;20024;-58
2021/06/29 02:13:10;;;;;;;1.17;0.82;;;26.00;60.00;;;;;;5093007;28;20059;-59
2021/06/29 02:15:36;;;;;;;2.67;0.90;;;26.10;60.00;;;;;;5092115;28;20497;-56
2021/06/29 02:18:03;;;;;;;2.15;1.15;;;26.00;59.90;;;;;;5092010;28;20112;-59
2021/06/29 02:20:29;;;;;;;1.30;1.10;;;26.10;60.00;;;;;;5092552;28;20063;-57
2021/06/29 02:22:55;;;;;;;1.40;1.20;;;26.00;59.90;;;;;;5091753;28;20092;-59
2021/06/29 02:25:21;;;;;;;1.20;0.95;;;26.10;60.00;;;;;;5091963;28;20381;-60
2021/06/29 02:27:47;;;;;;;1.00;0.80;;;26.10;60.00;;;;;;5091696;28;20024;-58
2021/06/29 02:30:13;;;;;;;1.33;1.10;;;26.10;59.90;;;;;;5092221;28;20093;-58
2021/06/29 02:32:39;;;;;;;2.13;1.05;;;26.10;59.90;;;;;;5091478;28;20039;-58
2021/06/29 02:35:06;;;;;;;0.88;0.82;;;26.10;59.90;;;;;;5092216;28;20028;-58
2021/06/29 02:37:31;;;;;;;1.15;1.00;;;26.10;60.00;;;;;;5092290;28;20103;-59
2021/06/29 02:39:57;;;;;;;1.05;0.88;;;26.10;60.00;;;;;;5091498;28;20169;-58
2021/06/29 02:42:23;;;;;;;0.90;0.90;;;26.00;59.90;;;;;;5092251;28;20073;-59
2021/06/29 02:44:49;;;;;;;1.10;0.90;;;26.10;60.00;;;;;;5091279;28;20078;-58
2021/06/29 02:47:15;;;;;;;1.08;0.98;;;26.10;60.00;;;;;;5091992;28;20024;-58
2021/06/29 02:49:41;;;;;;;1.10;1.00;;;26.10;60.00;;;;;;5091264;28;20473;-58
2021/06/29 02:52:07;;;;;;;1.55;0.80;;;26.00;59.90;;;;;;5092134;28;20032;-59
2021/06/29 02:54:33;;;;;;;1.02;0.90;;;26.10;60.00;;;;;;5091726;28;20036;-58
2021/06/29 02:56:59;;;;;;;1.00;0.90;;;26.10;59.90;;;;;;5091122;28;20031;-58
2021/06/29 02:59:25;;;;;;;1.33;1.00;;;26.10;60.00;;;;;;5091852;28;20040;-58
2021/06/29 03:01:51;;;;;;;1.00;0.80;;;26.10;60.00;;;;;;5090227;28;20038;-58
2021/06/29 03:04:17;;;;;;;1.38;0.98;;;26.10;60.00;;;;;;5091611;28;20035;-59
2021/06/29 03:06:43;;;;;;;1.30;0.95;;;26.10;59.90;;;;;;5090606;28;20036;-58
2021/06/29 03:09:09;;;;;;;1.20;1.00;;;26.10;60.00;;;;;;5090840;28;20128;-58
2021/06/29 03:11:36;;;;;;;0.95;0.85;;;26.00;59.90;;;;;;5091439;28;20047;-58
2021/06/29 03:14:03;;;;;;;1.67;0.90;;;26.00;60.00;;;;;;5091387;28;20085;-59
2021/06/29 03:16:29;;;;;;;1.00;0.90;;;26.00;59.90;;;;;;5091603;28;20470;-59
2021/06/29 03:18:55;;;;;;;1.20;0.95;;;26.00;60.00;;;;;;5090159;28;20024;-55
2021/06/29 03:21:22;;;;;;;1.35;1.00;;;26.00;60.00;;;;;;5091207;28;20431;-58
2021/06/29 03:23:48;;;;;;;1.83;0.90;;;26.00;59.90;;;;;;5090339;28;20470;-59
2021/06/29 03:26:13;;;;;;;1.02;0.93;;;26.00;59.90;;;;;;5090868;28;20032;-59
2021/06/29 03:28:39;;;;;;;1.58;0.70;;;26.00;59.90;;;;;;5090533;28;20039;-56
2021/06/29 03:31:05;;;;;;;0.88;0.70;;;26.00;59.90;;;;;;5091136;28;20043;-58
2021/06/29 03:33:30;;;;;;;1.75;1.00;;;26.00;59.90;;;;;;5091213;28;20121;-59
2021/06/29 03:35:56;;;;;;;1.58;1.17;;;26.00;59.90;;;;;;5090424;28;20032;-58
2021/06/29 03:38:22;;;;;;;1.05;0.90;;;26.00;59.90;;;;;;5091118;28;20068;-59
2021/06/29 03:40:48;;;;;;;1.13;1.00;;;26.00;59.90;;;;;;5090007;28;20040;-58
2021/06/29 03:43:13;;;;;;;2.42;1.30;;;26.00;59.90;;;;;;5091244;28;20384;-58
2021/06/29 03:45:39;;;;;;;1.08;0.70;;;26.00;59.80;;;;;;5090734;28;20469;-56
2021/06/29 03:48:05;;;;;;;1.05;0.90;;;26.00;59.80;;;;;;5090335;28;20032;-59
2021/06/29 03:50:31;;;;;;;1.15;0.98;;;26.00;59.80;;;;;;5090840;28;20036;-59
2021/06/29 03:52:56;;;;;;;1.10;0.80;;;26.00;59.90;;;;;;5090381;28;20039;-59
2021/06/29 03:55:22;;;;;;;1.20;0.95;;;26.10;59.90;;;;;;5090602;28;20036;-58
2021/06/29 03:57:48;;;;;;;1.10;0.98;;;26.00;59.80;;;;;;5090833;28;20069;-58
2021/06/29 04:00:14;;;;;;;1.10;0.88;;;26.00;59.80;;;;;;5091062;28;20047;-57
2021/06/29 04:02:40;;;;;;;2.88;1.10;;;26.00;59.90;;;;;;5090260;28;20469;-53
2021/06/29 04:05:07;;;;;;;2.03;0.85;;;26.00;59.90;;;;;;5090547;28;20149;-59
2021/06/29 04:07:34;;;;;;;1.33;1.10;;;26.00;59.90;;;;;;5073833;28;20039;-58
2021/06/29 04:10:00;;;;;;;1.80;0.80;;;26.00;59.80;;;;;;5093846;28;20036;-59
2021/06/29 04:12:29;;;;;;;1.00;0.90;;;26.00;59.90;;;;;;5094355;28;20024;-58
2021/06/29 04:14:54;;;;;;;0.82;0.80;;;26.00;59.90;;;;;;5093532;28;20028;-58
2021/06/29 04:17:20;;;;;;;1.27;0.90;;;26.00;59.80;;;;;;5094331;28;20342;-58
2021/06/29 04:19:46;;;;;;;2.25;0.90;;;26.00;59.90;;;;;;5093483;28;20048;-58
2021/06/29 04:22:11;;;;;;;1.08;0.70;;;26.00;59.90;;;;;;5093863;28;20445;-58
2021/06/29 04:24:37;;;;;;;1.48;0.82;;;26.00;59.90;;;;;;5094075;28;20051;-58
2021/06/29 04:27:04;;;;;;;1.65;1.08;;;26.00;59.80;;;;;;5093630;28;20107;-58
2021/06/29 04:29:30;;;;;;;1.67;0.88;;;26.00;59.80;;;;;;5093813;28;20032;-58
2021/06/29 04:31:55;;;;;;;2.28;1.10;;;26.00;59.80;;;;;;5093724;28;20028;-59
2021/06/29 04:34:21;;;;;;;1.42;1.02;;;26.00;59.80;;;;;;5094215;28;20020;-58
2021/06/29 04:36:47;;;;;;;1.13;0.90;;;26.00;59.80;;;;;;5092759;28;20028;-58
2021/06/29 04:39:13;;;;;;;1.00;0.70;;;26.00;59.90;;;;;;5088288;28;20493;-58
2021/06/29 04:41:38;;;;;;;1.10;0.90;;;26.00;59.90;;;;;;5094014;28;20056;-58
2021/06/29 04:44:05;;;;;;;1.58;0.80;;;26.00;59.80;;;;;;5092825;28;20020;-58
2021/06/29 04:46:31;;;;;;;1.48;1.02;;;26.00;59.70;;;;;;5092940;28;20451;-59
2021/06/29 04:48:58;;;;;;;1.60;0.90;;;26.00;59.80;;;;;;5092628;28;20457;-58
2021/06/29 04:51:24;;;;;;;1.15;0.75;;;26.00;59.70;;;;;;5094012;28;20024;-58
2021/06/29 04:53:49;;;;;;;2.22;0.93;;;26.00;59.70;;;;;;5093276;28;20031;-58
2021/06/29 04:56:18;;;;;;;1.10;1.00;;;26.00;59.70;;;;;;5093803;28;20027;-58
2021/06/29 04:58:54;;;;;;;3.42;1.17;;;26.00;59.70;;;;;;5092566;28;20120;-56
2021/06/29 05:01:22;;;;;;;1.27;0.90;;;26.00;59.80;;;;;;5093444;28;20032;-56
2021/06/29 05:03:48;;;;;;;1.20;0.82;;;26.00;59.80;;;;;;5092579;28;20051;-58
2021/06/29 05:06:18;;;;;;;1.15;0.90;;;26.00;59.70;;;;;;5092512;28;20465;-58
2021/06/29 05:08:44;;;;;;;1.30;0.80;;;26.00;59.80;;;;;;5087981;28;20035;-55
2021/06/29 05:11:10;;;;;;;0.95;0.80;;;26.00;59.80;;;;;;5093759;28;20028;-58
2021/06/29 05:13:35;;;;;;;1.00;0.90;;;26.00;59.80;;;;;;5093027;28;20385;-58
2021/06/29 05:16:01;;;;;;;0.95;0.88;;;26.00;59.80;;;;;;5092630;28;20034;-59
2021/06/29 05:18:26;;;;;;;1.38;0.90;;;26.00;59.80;;;;;;5093213;28;20032;-58
2021/06/29 05:20:54;;;;;;;0.75;0.73;;;26.00;59.80;;;;;;5092188;28;20042;-58
2021/06/29 05:23:20;;;;;;;1.52;1.10;;;26.00;59.80;;;;;;5093289;28;20074;-58
2021/06/29 05:25:46;;;;;;;1.90;0.73;;;26.00;60.00;;;;;;5092053;28;20107;-57
2021/06/29 05:28:12;;;;;;;1.08;0.98;;;26.00;59.80;;;;;;5092971;28;20095;-59
2021/06/29 05:30:37;;;;;;;1.90;1.17;;;26.00;59.90;;;;;;5093325;28;20145;-59
2021/06/29 05:33:03;;;;;;;1.20;0.90;;;26.00;59.80;;;;;;5092044;28;20460;-58
2021/06/29 05:35:29;;;;;;;1.63;1.10;;;26.00;60.10;;;;;;5092589;28;20020;-58
2021/06/29 05:37:55;;;;;;;1.95;0.90;;;26.00;60.00;;;;;;5087260;28;20022;-58
2021/06/29 05:40:20;;;;;;;1.20;0.88;;;26.10;60.20;;;;;;5092851;28;20085;-58
2021/06/29 05:42:46;;;;;;;4.13;1.00;;;26.10;60.20;;;;;;5091719;28;20479;-58
2021/06/29 05:45:13;;;;;;;4.25;1.70;;;26.10;60.60;;;;;;5086730;28;20032;-60
2021/06/29 05:47:40;;;;;;;3.85;2.00;;;25.40;60.80;;;;;;5083412;28;20118;-60
2021/06/29 05:50:10;;;;;;;2.35;2.15;;;24.70;62.70;;;;;;5088582;28;20101;-60
2021/06/29 05:52:36;;;;;;;3.33;2.05;;;24.20;64.30;;;;;;5084552;28;20039;-61
2021/06/29 05:55:03;;;;;;;3.00;1.83;;;24.00;65.10;;;;;;5091582;28;20512;-61
2021/06/29 05:57:29;;;;;;;4.40;2.80;;;23.90;65.50;;;;;;5092528;28;20040;-56
2021/06/29 05:59:54;;;;;;;2.60;1.63;;;23.80;65.80;;;;;;5087769;28;20055;-58
2021/06/29 06:02:20;;;;;;;3.13;1.90;;;23.50;65.90;;;;;;5091822;28;20487;-62
2021/06/29 06:04:46;;;;;;;2.55;1.83;;;23.70;65.90;;;;;;5091827;28;20047;-59
2021/06/29 06:07:11;;;;;;;3.28;1.83;;;23.70;66.40;;;;;;5091912;28;20058;-60
2021/06/29 06:09:37;;;;;;;2.42;1.67;;;23.70;66.40;;;;;;5084892;28;20028;-63
2021/06/29 06:12:04;;;;;;;2.30;1.70;;;23.70;66.40;;;;;;5091505;28;20047;-61
2021/06/29 06:14:30;;;;;;;3.80;1.73;;;23.70;66.60;;;;;;5091694;28;20373;-60
2021/06/29 06:16:55;;;;;;;2.40;1.73;;;23.60;67.20;;;;;;5090684;28;20028;-61
2021/06/29 06:19:21;;;;;;;2.85;1.80;;;23.40;67.90;;;;;;5091950;28;20195;-59
2021/06/29 06:21:47;;;;;;;2.88;1.63;;;23.40;68.90;;;;;;5091369;28;20168;-58
2021/06/29 06:24:13;;;;;;;1.90;1.70;;;23.40;68.00;;;;;;5078354;28;20465;-60
2021/06/29 06:26:38;;;;;;;4.60;2.15;;;23.50;67.40;;;;;;5093646;28;20035;-60
2021/06/29 06:29:04;;;;;;;4.30;1.80;;;23.40;67.80;;;;;;5091700;28;20474;-60
2021/06/29 06:31:30;;;;;;;4.80;1.90;;;23.40;68.80;;;;;;5091358;28;20032;-60
2021/06/29 06:33:56;;;;;;;2.67;1.60;;;23.30;68.30;;;;;;5091141;28;20431;-60
2021/06/29 06:36:22;;;;;;;3.15;1.80;;;23.40;67.20;;;;;;5091733;28;20024;-61
2021/06/29 06:38:47;;;;;;;6.10;1.60;;;23.50;66.80;;;;;;5090122;28;20405;-58
2021/06/29 06:41:14;;;;;;;3.60;1.75;;;23.50;67.00;;;;;;5090723;28;20513;-60
2021/06/29 06:43:43;;;;;;;2.75;1.58;;;23.50;66.80;;;;;;5091059;28;20543;-60
2021/06/29 06:46:09;;;;;;;1.88;1.23;;;23.40;66.40;;;;;;5091073;28;20039;-59
2021/06/29 06:48:39;;;;;;;4.05;1.55;;;23.50;67.00;;;;;;5091707;28;20070;-59
2021/06/29 06:51:05;;;;;;;2.47;1.38;;;23.50;67.20;;;;;;5090216;28;20085;-59
2021/06/29 06:53:31;;;;;;;2.70;1.30;;;23.50;67.20;;;;;;5090796;28;20373;-59
2021/06/29 06:55:57;;;;;;;4.88;1.40;;;23.50;67.80;;;;;;5089926;28;20028;-59
2021/06/29 06:58:23;;;;;;;2.88;1.23;;;23.50;67.30;;;;;;5090180;28;20056;-58
2021/06/29 07:00:49;;;;;;;2.58;1.50;;;23.50;67.00;;;;;;5088083;28;20040;-59
2021/06/29 07:03:14;;;;;;;2.53;1.20;;;23.60;66.80;;;;;;5091024;28;20098;-60
2021/06/29 07:05:40;;;;;;;1.17;1.00;;;23.60;66.40;;;;;;5091309;28;20086;-60
2021/06/29 07:08:06;;;;;;;2.78;1.27;;;23.50;65.20;;;;;;5085356;28;20021;-59
2021/06/29 07:10:31;;;;;;;3.22;1.13;;;23.70;65.50;;;;;;5091136;28;20096;-58
2021/06/29 07:12:57;;;;;;;1.60;0.93;;;24.10;64.50;;;;;;5090371;28;20473;-59
2021/06/29 07:15:23;;;;;;;2.53;1.30;;;24.20;62.00;;;;;;5091390;28;20040;-55
2021/06/29 07:17:49;;;;;;;1.70;1.10;;;23.90;61.90;;;;;;5090420;28;20486;-57
2021/06/29 07:20:15;;;;;;;1.33;1.05;;;23.90;63.80;;;;;;5090865;28;20024;-58
2021/06/29 07:22:41;;;;;;;1.52;1.10;;;23.90;63.90;;;;;;5083602;28;20032;-58
2021/06/29 07:25:08;;;;;;;3.00;1.00;;;23.80;62.90;;;;;;5088725;28;20161;-58
2021/06/29 07:27:34;;;;;;;2.20;1.30;;;23.90;63.00;;;;;;5091089;28;20029;-57
2021/06/29 07:30:00;;;;;;;1.88;1.08;;;23.90;62.80;;;;;;5089271;28;20042;-55
2021/06/29 07:32:26;;;;;;;2.47;1.00;;;23.90;62.90;;;;;;5091240;28;20115;-58
2021/06/29 07:34:52;;;;;;;2.78;0.85;;;23.90;61.60;;;;;;5090432;28;20032;-58
2021/06/29 07:37:18;;;;;;;2.08;0.90;;;24.20;61.30;;;;;;5090799;28;20028;-58
2021/06/29 07:39:44;;;;;;;1.55;1.10;;;24.60;60.60;;;;;;5089377;28;20078;-59
2021/06/29 07:42:10;;;;;;;1.60;1.00;;;24.90;60.30;;;;;;5091035;28;20024;-58
2021/06/29 07:44:35;;;;;;;0.80;0.68;;;25.00;60.10;;;;;;5095066;28;20026;-58
2021/06/29 07:47:01;;;;;;;3.03;1.00;;;25.10;60.10;;;;;;5093622;28;20030;-58
2021/06/29 07:49:27;;;;;;;2.45;0.75;;;25.20;60.20;;;;;;5094417;28;20063;-59
2021/06/29 07:51:54;;;;;;;2.80;0.80;;;25.30;60.10;;;;;;5092855;28;20469;-57
2021/06/29 07:54:19;;;;;;;2.03;0.90;;;25.30;60.10;;;;;;5091434;28;20031;-58
2021/06/29 07:56:45;;;;;;;2.42;0.98;;;25.30;60.00;;;;;;5075935;28;20030;-58
2021/06/29 07:59:11;;;;;;;2.83;1.58;;;25.40;60.00;;;;;;5092129;28;20044;-59
2021/06/29 08:01:37;;;;;;;2.15;0.93;;;25.30;60.00;;;;;;5088686;28;20036;-58
2021/06/29 08:04:03;;;;;;;1.95;0.93;;;25.40;60.10;;;;;;5084732;28;20074;-59
2021/06/29 08:06:28;;;;;;;2.05;1.00;;;25.40;60.10;;;;;;5093042;28;20415;-58
2021/06/29 08:08:54;;;;;;;1.00;0.82;;;25.40;60.00;;;;;;5092321;28;20024;-58
2021/06/29 08:11:20;;;;;;;3.15;0.90;;;25.50;60.10;;;;;;5093722;28;20032;-58
2021/06/29 08:13:45;;;;;;;2.42;1.10;;;25.50;60.10;;;;;;5093200;28;20056;-58
2021/06/29 08:16:11;;;;;;;1.40;0.90;;;25.50;60.10;;;;;;5092880;28;20028;-59
2021/06/29 08:18:38;;;;;;;1.70;0.80;;;25.50;60.00;;;;;;5093591;28;20025;-59
2021/06/29 08:21:04;;;;;;;2.67;0.85;;;25.50;60.00;;;;;;5093179;28;20032;-58
2021/06/29 08:23:30;;;;;;;1.35;0.93;;;25.50;60.20;;;;;;5085444;28;20040;-58
2021/06/29 08:25:56;;;;;;;1.40;1.13;;;25.50;60.10;;;;;;5092063;28;20020;-57
2021/06/29 08:28:22;;;;;;;1.92;0.75;;;25.50;60.10;;;;;;5093156;28;20534;-58
2021/06/29 08:30:50;;;;;;;2.15;1.00;;;25.50;60.00;;;;;;5093673;28;20097;-58
2021/06/29 08:33:20;;;;;;;1.25;0.90;;;25.60;60.20;;;;;;5093288;28;20024;-58
2021/06/29 08:35:46;;;;;;;3.33;1.00;;;25.60;60.10;;;;;;5093786;28;20089;-58
2021/06/29 08:38:13;;;;;;;1.42;0.80;;;25.60;60.10;;;;;;5092315;28;20024;-58
2021/06/29 08:40:40;;;;;;;1.60;1.00;;;25.60;60.10;;;;;;5075708;28;20043;-58
2021/06/29 08:43:06;;;;;;;1.92;1.23;;;25.60;60.10;;;;;;5092755;28;20068;-58
2021/06/29 08:45:32;;;;;;;1.08;0.80;;;25.70;60.10;;;;;;5093732;28;20034;-58
2021/06/29 08:48:00;;;;;;;1.58;0.80;;;25.60;60.00;;;;;;5093262;28;20032;-58
2021/06/29 08:50:30;;;;;;;2.00;0.90;;;25.60;60.10;;;;;;5093602;28;20042;-58
2021/06/29 08:52:57;;;;;;;1.17;1.00;;;25.60;60.00;;;;;;5082116;28;20036;-58
2021/06/29 08:55:26;;;;;;;2.58;0.93;;;25.70;60.10;;;;;;5093243;28;20445;-58
2021/06/29 08:57:52;;;;;;;1.92;0.70;;;25.70;60.00;;;;;;5093067;28;20024;-55
2021/06/29 09:00:18;;;;;;;1.15;0.70;;;25.70;60.10;;;;;;5093052;28;20058;-58
2021/06/29 09:02:43;;;;;;;2.22;0.90;;;25.70;60.00;;;;;;5093434;28;20032;-59
2021/06/29 09:05:24;;;;;;;2.00;1.00;;;25.70;60.00;;;;;;5092473;28;20027;-58
2021/06/29 09:08:07;;;;;;;2.17;1.48;;;25.70;60.00;;;;;;5092194;28;20060;-58
2021/06/29 09:10:34;;;;;;;1.42;0.82;;;25.70;60.00;;;;;;5092921;28;20538;-58
2021/06/29 09:13:01;;;;;;;1.63;0.65;;;25.70;60.00;;;;;;5092481;28;20103;-58
2021/06/29 09:15:36;;;;;;;1.30;0.70;;;25.70;60.00;;;;;;5092865;28;20461;-58
2021/06/29 09:18:04;;;;;;;2.45;1.05;;;25.70;60.00;;;;;;5092140;28;20107;-58
2021/06/29 09:20:32;;;;;;;1.45;1.08;;;25.70;60.00;;;;;;5092834;28;20036;-59
2021/06/29 09:23:11;;;;;;;2.20;0.80;;;25.70;59.90;;;;;;5090196;28;20024;-58
2021/06/29 09:25:38;;;;;;;1.58;0.90;;;25.70;59.90;;;;;;5092905;28;20468;-58
2021/06/29 09:28:05;;;;;;;1.20;0.73;;;25.70;60.00;;;;;;5091976;28;20085;-58
2021/06/29 09:30:32;;;;;;;2.17;1.02;;;25.80;60.00;;;;;;5092206;28;20044;-59
2021/06/29 09:33:10;;;;;;;1.48;0.90;;;25.80;59.90;;;;;;5091981;28;20024;-58
2021/06/29 09:35:37;;;;;;;1.25;1.05;;;25.80;60.00;;;;;;5092797;28;20048;-58
2021/06/29 09:38:04;;;;;;;0.60;0.60;;;25.80;60.50;;;;;;5091559;28;20042;-59
2021/06/29 09:40:31;;;;;;;0.52;0.40;;;25.80;59.90;;;;;;5092756;28;20042;-58
2021/06/29 09:43:17;;;;;;;0.80;0.65;;;25.80;59.90;;;;;;5090719;28;20032;-58
2021/06/29 09:45:45;;;;;;;1.52;0.80;;;25.80;59.90;;;;;;5092721;28;20063;-59
2021/06/29 09:48:17;;;;;;;1.20;0.82;;;25.80;59.90;;;;;;5091253;28;20642;-58
2021/06/29 09:50:50;;;;;;;1.15;0.60;;;25.80;59.90;;;;;;5092608;28;20039;-58
2021/06/29 09:53:24;;;;;;;3.05;1.38;;;25.80;59.90;;;;;;5088278;28;20389;-58
2021/06/29 09:55:56;;;;;;;1.27;0.77;;;25.80;59.80;;;;;;5092446;28;20453;-58
2021/06/29 09:58:22;;;;;;;1.13;1.02;;;25.90;59.90;;;;;;5091993;28;20077;-58
2021/06/29 10:00:49;;;;;;;0.90;0.63;;;25.80;59.80;;;;;;5092088;28;20052;-58
2021/06/29 10:03:23;;;;;;;1.75;0.75;;;25.90;59.90;;;;;;5091287;28;20891;-59
2021/06/29 10:05:52;;;;;;;0.82;0.60;;;25.90;59.90;;;;;;5091581;28;20032;-59
2021/06/29 10:08:22;;;;;;;1.38;0.55;;;25.80;59.80;;;;;;5084281;28;20065;-59
2021/06/29 10:10:48;;;;;;;0.90;0.70;;;25.90;59.90;;;;;;5092047;28;20036;-58
2021/06/29 10:13:17;;;;;;;0.90;0.65;;;25.80;59.90;;;;;;5091319;28;20623;-58
2021/06/29 10:15:44;;;;;;;0.80;0.70;;;25.90;59.90;;;;;;5092289;28;20059;-59
2021/06/29 10:18:10;;;;;;;0.73;0.63;;;25.80;59.90;;;;;;5091093;28;20028;-59
2021/06/29 10:20:59;;;;;;;0.82;0.60;;;25.90;60.10;;;;;;5091711;28;20503;-59
2021/06/29 10:23:26;;;;;;;1.05;0.80;;;25.90;59.90;;;;;;5088097;28;20069;-58
2021/06/29 10:25:52;;;;;;;0.85;0.63;;;25.90;59.90;;;;;;5091904;28;20039;-57
2021/06/29 10:28:19;;;;;;;0.88;0.60;;;25.90;59.90;;;;;;5091105;28;20110;-58
2021/06/29 10:30:45;;;;;;;1.35;1.02;;;25.90;59.90;;;;;;5091767;28;20044;-59
2021/06/29 10:33:12;;;;;;;0.82;0.70;;;25.90;59.90;;;;;;5091031;28;20790;-59
2021/06/29 10:35:40;;;;;;;1.30;0.70;;;25.90;59.90;;;;;;5092251;28;20039;-59
2021/06/29 10:38:06;;;;;;;0.98;0.50;;;25.90;59.90;;;;;;5090961;28;20032;-58
2021/06/29 10:40:32;;;;;;;0.95;0.60;;;25.90;59.90;;;;;;5091391;28;20043;-59
2021/06/29 10:43:00;;;;;;;1.67;0.70;;;25.90;59.90;;;;;;5090809;28;20032;-58
2021/06/29 10:45:36;;;;;;;0.60;0.60;;;25.90;59.90;;;;;;5091493;28;20031;-58
2021/06/29 10:48:18;;;;;;;0.70;0.70;;;25.90;60.00;;;;;;5084210;28;20031;-59
2021/06/29 10:50:45;;;;;;;2.78;0.70;;;25.90;59.80;;;;;;5091568;28;20039;-60
2021/06/29 10:53:34;;;;;;;3.50;0.80;;;26.00;59.90;;;;;;5086221;28;20030;-59
2021/06/29 10:56:02;;;;;;;2.08;0.70;;;26.00;59.80;;;;;;5084389;28;20097;-59
2021/06/29 10:58:42;;;;;;;1.10;0.80;;;26.00;59.60;;;;;;5091143;28;20020;-59
2021/06/29 11:01:29;;;;;;;0.68;0.60;;;26.00;59.90;;;;;;5090490;28;20040;-59
2021/06/29 11:04:02;;;;;;;1.83;1.10;;;26.00;60.00;;;;;;5087019;28;20044;-56
2021/06/29 11:06:46;;;;;;;0.70;0.60;;;26.00;60.40;;;;;;5083286;28;20527;-59
2021/06/29 11:09:19;;;;;;;1.02;0.80;;;26.00;60.30;;;;;;5090213;28;20032;-59
2021/06/29 11:12:24;;;;;;;1.58;0.73;;;26.00;60.50;;;;;;5091206;28;20063;-59
2021/06/29 11:14:52;;;;;;;1.08;0.80;;;26.00;60.30;;;;;;5091124;28;20047;-59
2021/06/29 11:17:22;;;;;;;0.68;0.45;;;26.00;60.30;;;;;;5093837;28;20486;-59
2021/06/29 11:20:03;;;;;;;0.60;0.60;;;26.00;60.30;;;;;;5095438;28;20047;-59
2021/06/29 11:23:00;;;;;;;0.82;0.82;;;26.00;60.20;;;;;;5092419;28;20024;-59
2021/06/29 11:25:30;;;;;;;1.17;0.60;;;26.00;60.10;;;;;;5094617;28;20074;-59
2021/06/29 11:28:20;;;;;;;0.90;0.80;;;26.00;60.00;;;;;;5094569;28;20028;-57
2021/06/29 11:31:06;;;;;;;0.70;0.68;;;26.00;60.00;;;;;;5095040;28;20036;-59
2021/06/29 11:33:40;;;;;;;1.95;0.85;;;26.00;60.00;;;;;;5095342;28;20153;-59
2021/06/29 11:36:26;;;;;;;1.60;0.70;;;26.00;60.00;;;;;;5094196;28;20036;-59
2021/06/29 11:39:00;;;;;;;0.65;0.65;;;26.00;60.00;;;;;;5080546;28;20070;-59
2021/06/29 11:41:25;;;;;;;1.65;0.70;;;26.00;60.00;;;;;;5094836;28;20059;-59
2021/06/29 11:43:52;;;;;;;1.25;0.70;;;26.00;60.00;;;;;;5094502;28;20454;-59
2021/06/29 11:46:46;;;;;;;1.33;0.70;;;26.00;60.00;;;;;;5093659;28;20024;-59
2021/06/29 11:49:14;;;;;;;0.60;0.40;;;26.00;59.90;;;;;;5091928;28;20016;-59
2021/06/29 11:51:55;;;;;;;1.75;0.80;;;26.00;59.80;;;;;;5094528;28;20116;-59
2021/06/29 11:54:42;;;;;;;0.85;0.85;;;26.00;59.90;;;;;;5088334;28;20077;-59
2021/06/29 11:57:19;;;;;;;0.82;0.70;;;26.00;59.80;;;;;;5093690;28;20397;-59
2021/06/29 11:59:45;;;;;;;1.48;0.70;;;26.00;59.80;;;;;;5094549;28;20130;-58
2021/06/29 12:02:17;;;;;;;0.50;0.50;;;26.00;59.80;;;;;;5093441;28;20107;-58
2021/06/29 12:04:59;;;;;;;1.52;0.70;;;26.00;59.80;;;;;;5093938;28;20479;-59
2021/06/29 12:07:58;;;;;;;1.33;0.80;;;26.00;59.70;;;;;;5084464;28;20032;-59
2021/06/29 12:10:35;;;;;;;1.20;0.80;;;26.00;59.70;;;;;;5078385;28;20052;-59
2021/06/29 12:13:16;;;;;;;1.55;0.90;;;26.00;59.80;;;;;;5093493;28;20115;-59
2021/06/29 12:15:43;;;;;;;2.60;0.90;;;26.00;59.80;;;;;;5085240;28;20040;-56
2021/06/29 12:18:12;;;;;;;0.75;0.63;;;26.00;59.70;;;;;;5093757;28;20056;-60
2021/06/29 12:21:00;;;;;;;0.90;0.75;;;26.10;59.80;;;;;;5094783;28;20135;-59
2021/06/29 12:23:32;;;;;;;1.10;0.80;;;26.10;59.80;;;;;;5086835;28;20035;-59
2021/06/29 12:26:03;;;;;;;1.50;1.17;;;26.00;59.70;;;;;;5093258;28;20077;-57
2021/06/29 12:28:31;;;;;;;1.40;0.70;;;26.00;59.70;;;;;;5093348;28;20028;-59
2021/06/29 12:31:05;;;;;;;0.95;0.60;;;26.00;59.70;;;;;;5093622;28;20380;-55
2021/06/29 12:33:34;;;;;;;1.27;0.70;;;26.10;59.70;;;;;;5093726;28;20427;-59
2021/06/29 12:36:08;;;;;;;1.88;0.80;;;26.00;59.70;;;;;;5089584;28;20113;-57
2021/06/29 12:38:42;;;;;;;1.05;0.68;;;26.00;59.60;;;;;;5093558;28;20020;-59
2021/06/29 12:41:13;;;;;;;1.45;0.80;;;26.00;59.60;;;;;;5092688;28;20044;-59
2021/06/29 12:43:44;;;;;;;0.70;0.60;;;26.00;59.60;;;;;;5093424;28;20036;-59
2021/06/29 12:46:24;;;;;;;0.60;0.60;;;26.00;59.60;;;;;;5092930;28;20472;-59
2021/06/29 12:49:02;;;;;;;1.92;1.10;;;26.00;59.60;;;;;;5092907;28;20024;-59
2021/06/29 12:51:36;;;;;;;1.00;0.57;;;26.00;59.60;;;;;;5093982;28;20031;-59
2021/06/29 12:54:08;;;;;;;0.80;0.60;;;26.00;59.50;;;;;;5085016;28;20447;-59
2021/06/29 12:56:48;;;;;;;1.58;0.70;;;26.00;59.50;;;;;;5093682;28;20024;-59